Butler, NJ (07405)

8:42 AM EDT on May 26, 2017 (GMT -0400)
Butler Weather | | Change Station

Elev 351 ft 41.00 °N, 74.34 °W | Updated 5 seconds ago

Overcast
Overcast
58.1 °F
Feels Like 58.1 °F
N
0.0
Wind Variable Wind from NW
Gusts 0.0 mph

Today
High -- | Low -- °F
--% Chance of Precip.
Yesterday
High -- | Low -- °F
Precip. -- in
Pressure 29.61 in
Visibility 10.0 miles
Clouds Overcast 2500 ft
Dew Point 50 °F
Humidity 74%
Rainfall 0.00 in
Snow Depth Not available.
5:30 AM 8:18 PM
New Moon, 1% visible
METAR KCDW 261153Z 29003KT 10SM OVC025 14/13 A2959 RMK AO2 RAE21 SLP025 P0000 60018 70082 T01440128 10150 20139 53016 $
Pressure 29.61 in
Visibility 10.0 miles
Clouds Overcast 2500 ft
Dew Point 50 °F
Humidity 74%
Rainfall 0.00 in
Snow Depth Not available.
5:30 AM 8:18 PM
New Moon, 1% visible
METAR KCDW 261153Z 29003KT 10SM OVC025 14/13 A2959 RMK AO2 RAE21 SLP025 P0000 60018 70082 T01440128 10150 20139 53016 $

Get Severe Weather Alerts

Thanks for signing up!

Be on the lookout for a verification email in your inbox.

You'll start receiving the daily forecast at 6 AM.

×

10-Day Weather Forecast

Almanac

Astronomy

May. 26, 2017 Rise Set
Actual Time
Civil Twilight
Nautical Twilight
Astronomical Twilight
Moon
Length of Visible Light
Length of Day
Tomorrow will be .
, % of the Moon is Illuminated

Today's Extremes

State Highs State Lows

Community

WunderPhotos

Category 6

Welcome to Category 6. This is the collective home for Weather Underground's featured writeups by Dr. Jeff Masters (right), Bob Henson (left), Chris Burt, and other regular contributors.

Nearby

Air Quality

  Air Quality AQ Index Pollutant
Not available.

Snow Depth

Station Depth Elevation

Earthquake Activity

City Distance Mag. Time & Date
Minimum magnitude displayed is 2.5.

Coastal Water Temperatures

Place Temperature

Stations

Nearby Weather Stations

Station Location Temp. Windchill Dew Point Humidity Wind Precip. Elev Updated Type
                   

Watches & Warnings

There are currently no watches in effect.